LHPP/PEV METAR and TAF weather

Enter ICAO airport designator
Station Type Date Time Source
LHPP METAR 2021/03/03 17:45 UTC NOAA

LHPP 031745Z 15001KT CAVOK 10/M05 Q1027


Station Type Date Time Source
LHPP Decoded METAR 2021/03/03 17:45 UTC NOAA

Pecs / Pogany, Hungary (LHPP) 46-06N 018-14E 203M
Mar 03, 2021 - 12:45 PM EST / 2021.03.03 1745 UTC
Wind: from the SSE (150 degrees) at 1 MPH (1 KT):0
Visibility: greater than 7 mile(s):0
Temperature: 50 F (10 C)
Dew Point: 23 F (-5 C)
Relative Humidity: 34%
Pressure (altimeter): 30.33 in. Hg (1027 hPa)
ob: LHPP 031745Z 15001KT CAVOK 10/M05 Q1027
cycle: 18

Station Type Date Time Source
LHPP TAF 2017/08/21 15:50 UTC NOAA

TAF LHPP 211700Z 2115/2214 CNL

Example: see airport list